Time;durP1;ratioP1;P1;durP2;ratioP2;P2;SDS_P1;SDS_P2;PMS_P1;PMS_P2;Temp;Humidity;BMP_temperature;BMP_pressure;BME280_temperature;BME280_humidity;BME280_pressure;Samples;Min_cycle;Max_cycle;Signal;HPM_P1;HPM_P2
2023/10/30 00:02:59;;;;;;;7.50;4.30;;;;;;;12.01;85.96;98736.47;218111;1260;139742;-73
2023/10/30 00:08:04;;;;;;;10.40;5.10;;;;;;;11.96;85.88;98733.69;218216;1256;140450;-72
2023/10/30 00:13:08;;;;;;;6.90;3.60;;;;;;;11.94;86.03;98757.15;218857;1257;141067;-71
2023/10/30 00:18:14;;;;;;;4.10;3.20;;;;;;;11.93;85.99;98783.91;217652;1257;139630;-70
2023/10/30 00:23:19;;;;;;;6.10;3.40;;;;;;;11.92;86.12;98808.96;218395;1257;140289;-70
2023/10/30 00:28:24;;;;;;;4.40;2.60;;;;;;;11.87;86.13;98784.83;218059;1257;139263;-70
2023/10/30 00:33:30;;;;;;;10.70;3.30;;;;;;;11.82;86.36;98776.96;220220;1256;140791;-70
2023/10/30 00:38:35;;;;;;;4.40;3.60;;;;;;;11.82;86.38;98785.61;218523;1256;140495;-71
2023/10/30 00:43:40;;;;;;;2.90;2.50;;;;;;;11.85;86.60;98780.77;220385;1256;139094;-71
2023/10/30 00:48:44;;;;;;;3.60;3.30;;;;;;;11.87;86.55;98781.02;220144;1256;140367;-71
2023/10/30 00:53:48;;;;;;;9.50;3.40;;;;;;;11.86;86.35;98785.73;220267;1257;141224;-70
2023/10/30 00:58:52;;;;;;;4.60;3.60;;;;;;;11.85;86.38;98789.67;219263;1257;140037;-69
2023/10/30 01:03:57;;;;;;;3.80;3.50;;;;;;;11.85;86.32;98788.55;219903;1257;140067;-70
2023/10/30 01:09:03;;;;;;;6.80;4.10;;;;;;;11.83;86.37;98794.11;217849;1257;140071;-73
2023/10/30 01:14:08;;;;;;;6.20;2.80;;;;;;;11.78;86.12;98786.52;218844;1256;140110;-72
2023/10/30 01:19:13;;;;;;;3.50;3.20;;;;;;;11.72;86.60;98789.09;218144;1256;140650;-73
2023/10/30 01:24:17;;;;;;;4.70;4.10;;;;;;;11.65;86.69;98773.27;217498;1257;856897;-73
2023/10/30 01:29:22;;;;;;;6.80;3.70;;;;;;;11.60;86.91;98777.50;219309;1256;140684;-72
2023/10/30 01:34:27;;;;;;;4.60;2.90;;;;;;;11.59;87.37;98786.52;218026;1256;139409;-72
2023/10/30 01:39:32;;;;;;;4.60;3.30;;;;;;;11.56;87.01;98787.10;217920;1256;140691;-71
2023/10/30 01:44:56;;;;;;;9.40;4.50;;;;;;;11.50;87.31;98778.05;217956;1258;139603;-71
2023/10/30 01:50:02;;;;;;;8.60;3.40;;;;;;;11.46;87.42;98775.86;218152;1257;140057;-69
2023/10/30 01:55:08;;;;;;;6.40;2.60;;;;;;;11.41;87.60;98781.08;217694;1258;139814;-71
2023/10/30 02:00:13;;;;;;;8.20;3.90;;;;;;;11.40;87.89;98797.92;218775;1257;140541;-71
2023/10/30 02:05:17;;;;;;;3.70;2.50;;;;;;;11.38;88.08;98788.16;217953;1260;139515;-69
2023/10/30 02:10:21;;;;;;;2.20;2.00;;;;;;;11.35;88.15;98781.37;219002;1257;140022;-68
2023/10/30 02:15:26;;;;;;;3.20;2.20;;;;;;;11.33;88.35;98769.52;218608;1260;139670;-69
2023/10/30 02:20:32;;;;;;;8.10;3.70;;;;;;;11.32;88.52;98760.34;219489;1256;139473;-70
2023/10/30 02:25:35;;;;;;;3.00;2.80;;;;;;;11.35;88.54;98740.55;218731;1257;140157;-73
2023/10/30 02:30:39;;;;;;;2.70;2.50;;;;;;;11.33;88.76;98734.73;218458;1257;141580;-70
2023/10/30 02:35:44;;;;;;;3.60;2.80;;;;;;;11.28;88.73;98733.08;219580;1257;139331;-70
2023/10/30 02:40:48;;;;;;;7.30;2.70;;;;;;;11.23;88.78;98735.63;219532;1256;139427;-69
2023/10/30 02:45:53;;;;;;;5.70;3.70;;;;;;;11.19;88.69;98736.20;220414;1256;142010;-70
2023/10/30 02:51:00;;;;;;;7.20;2.70;;;;;;;11.15;88.89;98727.59;220274;1257;139374;-69
2023/10/30 02:56:05;;;;;;;3.20;3.00;;;;;;;11.14;89.12;98717.04;220569;1256;140099;-68
2023/10/30 03:01:09;;;;;;;8.20;3.50;;;;;;;11.17;88.94;98733.00;219522;1256;139142;-70
2023/10/30 03:06:14;;;;;;;9.80;2.90;;;;;;;11.17;88.98;98740.09;218765;1256;140622;-70
2023/10/30 03:11:19;;;;;;;4.30;2.90;;;;;;;11.16;89.53;98744.18;219094;1257;140061;-70
2023/10/30 03:16:23;;;;;;;2.30;2.10;;;;;;;11.15;89.31;98762.06;218616;1257;140228;-71
2023/10/30 03:21:27;;;;;;;4.20;2.60;;;;;;;11.14;89.65;98769.95;218767;1256;139391;-71
2023/10/30 03:26:32;;;;;;;4.10;3.00;;;;;;;11.17;90.07;98773.27;218225;1256;140050;-71
2023/10/30 03:31:36;;;;;;;6.70;2.80;;;;;;;11.21;90.06;98763.95;218380;1256;139501;-74
2023/10/30 03:36:40;;;;;;;6.10;3.30;;;;;;;11.24;90.34;98761.13;218049;1260;139541;-74
2023/10/30 03:41:44;;;;;;;3.00;2.70;;;;;;;11.23;90.37;98755.11;218128;1256;139578;-72
2023/10/30 03:46:48;;;;;;;4.90;2.90;;;;;;;11.22;90.19;98759.15;218255;1256;139923;-71
2023/10/30 03:51:53;;;;;;;4.70;2.10;;;;;;;11.20;90.49;98765.65;217803;1260;139837;-72
2023/10/30 03:56:57;;;;;;;5.30;2.70;;;;;;;11.19;90.33;98780.21;218316;1257;139586;-71
2023/10/30 04:02:02;;;;;;;6.90;3.20;;;;;;;11.19;90.58;98783.05;218350;1256;140495;-71
2023/10/30 04:07:06;;;;;;;6.70;2.50;;;;;;;11.21;90.93;98791.54;218383;1256;140374;-68
2023/10/30 04:12:11;;;;;;;8.70;3.00;;;;;;;11.23;90.84;98796.66;217908;1256;244744;-68
2023/10/30 04:17:17;;;;;;;5.50;2.10;;;;;;;11.24;91.04;98783.76;218423;1256;139874;-69
2023/10/30 04:22:22;;;;;;;3.30;3.00;;;;;;;11.24;90.93;98796.04;218056;1258;141056;-69
2023/10/30 04:27:27;;;;;;;2.40;2.10;;;;;;;11.27;90.87;98808.73;219105;1256;139782;-69
2023/10/30 04:32:31;;;;;;;6.70;3.50;;;;;;;11.29;91.02;98807.20;219086;1256;139712;-69
2023/10/30 04:37:36;;;;;;;4.00;3.60;;;;;;;11.30;90.90;98799.42;220373;1256;139859;-69
2023/10/30 04:42:40;;;;;;;7.30;2.80;;;;;;;11.30;90.80;98791.67;219991;1255;140136;-69
2023/10/30 04:47:45;;;;;;;3.70;2.80;;;;;;;11.30;90.68;98794.77;220306;1256;139768;-69
2023/10/30 04:52:50;;;;;;;6.20;2.90;;;;;;;11.28;90.55;98813.61;219052;1256;139941;-68
2023/10/30 04:57:54;;;;;;;3.10;2.80;;;;;;;11.27;90.52;98823.95;220370;1256;140613;-69
2023/10/30 05:02:59;;;;;;;3.10;2.50;;;;;;;11.25;90.50;98824.31;219776;1256;140495;-70
2023/10/30 05:08:04;;;;;;;2.80;2.50;;;;;;;11.24;90.38;98823.83;219062;1256;140124;-69
2023/10/30 05:13:08;;;;;;;4.50;2.90;;;;;;;11.22;90.69;98825.26;218791;1256;141004;-68
2023/10/30 05:18:13;;;;;;;4.10;2.80;;;;;;;11.21;90.40;98828.77;218497;1257;139725;-68
2023/10/30 05:23:24;;;;;;;3.20;2.40;;;;;;;11.20;90.50;98845.84;217624;1256;140421;-68
2023/10/30 05:28:29;;;;;;;2.80;2.20;;;;;;;11.16;90.36;98844.11;218815;1256;139681;-68
2023/10/30 05:33:34;;;;;;;12.90;4.30;;;;;;;11.07;90.25;98841.07;217526;1257;140140;-67
2023/10/30 05:38:38;;;;;;;2.40;2.20;;;;;;;10.99;90.26;98841.90;218105;1256;139887;-69
2023/10/30 05:43:43;;;;;;;4.10;2.70;;;;;;;10.91;90.35;98853.06;217828;1256;139868;-68
2023/10/30 05:48:47;;;;;;;4.60;3.30;;;;;;;10.85;90.22;98860.54;218251;1256;139428;-69
2023/10/30 05:53:54;;;;;;;3.30;2.80;;;;;;;10.78;90.57;98861.92;218412;1256;139941;-68
2023/10/30 05:59:00;;;;;;;7.50;3.60;;;;;;;10.76;90.38;98876.73;218508;1256;139346;-71
2023/10/30 06:04:05;;;;;;;5.10;3.00;;;;;;;10.76;90.89;98887.61;218408;1255;141436;-70
2023/10/30 06:09:12;;;;;;;3.60;2.60;;;;;;;10.82;91.36;98891.60;218061;1256;139332;-70
2023/10/30 06:14:18;;;;;;;7.10;4.40;;;;;;;10.89;91.30;98895.65;218950;1256;139609;-69
2023/10/30 06:19:24;;;;;;;4.20;3.10;;;;;;;10.96;91.30;98892.29;218413;1256;140775;-69
2023/10/30 06:24:31;;;;;;;6.50;3.20;;;;;;;11.06;91.46;98890.14;218042;1258;139734;-71
2023/10/30 06:29:36;;;;;;;3.40;2.80;;;;;;;11.15;91.49;98895.00;219425;1256;139696;-71
2023/10/30 06:34:42;;;;;;;5.40;2.90;;;;;;;11.27;91.34;98900.20;219080;1256;140756;-71
2023/10/30 06:39:46;;;;;;;3.40;2.90;;;;;;;11.48;91.41;98898.67;219507;1256;139662;-69
2023/10/30 06:44:51;;;;;;;2.90;2.30;;;;;;;11.78;91.67;98905.27;220370;1257;141995;-71
2023/10/30 06:49:56;;;;;;;5.00;3.10;;;;;;;12.18;91.43;98909.42;220329;1256;139679;-73
2023/10/30 06:55:00;;;;;;;4.50;2.80;;;;;;;12.72;91.28;98916.07;219000;1256;139598;-70
2023/10/30 07:00:10;;;;;;;3.30;3.00;;;;;;;13.61;90.92;98918.09;219150;1259;140537;-70
2023/10/30 07:05:14;;;;;;;7.10;3.60;;;;;;;14.22;90.21;98923.13;218980;1257;140127;-71
2023/10/30 07:10:17;;;;;;;2.50;2.30;;;;;;;14.68;89.18;98920.52;218648;1257;139832;-68
2023/10/30 07:15:21;;;;;;;7.50;3.20;;;;;;;15.16;88.37;98921.62;219190;1256;141303;-70
2023/10/30 07:20:25;;;;;;;2.70;2.00;;;;;;;15.77;87.77;98911.27;218187;1258;140023;-71
2023/10/30 07:25:29;;;;;;;7.60;2.70;;;;;;;16.11;86.33;98909.91;219216;1256;139312;-69
2023/10/30 07:30:33;;;;;;;5.20;3.20;;;;;;;16.09;84.83;98910.41;217884;1256;140823;-71
2023/10/30 07:35:38;;;;;;;4.40;3.30;;;;;;;15.87;83.84;98925.64;218234;1258;139636;-71
2023/10/30 07:40:43;;;;;;;7.10;3.10;;;;;;;15.52;83.20;98930.91;217842;1258;140034;-70
2023/10/30 07:45:48;;;;;;;2.20;1.90;;;;;;;15.28;83.07;98943.73;217771;1256;139824;-70
2023/10/30 07:50:55;;;;;;;3.20;2.40;;;;;;;15.07;82.83;98954.25;218019;1260;139870;-69
2023/10/30 07:55:58;;;;;;;3.00;2.80;;;;;;;14.89;82.97;98950.61;219388;1256;140968;-70
2023/10/30 08:01:03;;;;;;;5.60;2.90;;;;;;;14.92;83.26;98942.70;218977;1257;140763;-71
2023/10/30 08:06:07;;;;;;;5.20;3.40;;;;;;;15.07;83.54;98935.73;218673;1256;139701;-69
2023/10/30 08:11:13;;;;;;;7.10;2.80;;;;;;;15.22;83.37;98925.16;219923;1256;140122;-70
2023/10/30 08:16:18;;;;;;;3.80;2.60;;;;;;;15.25;82.92;98935.35;218866;1256;140468;-70
2023/10/30 08:21:22;;;;;;;4.20;2.80;;;;;;;15.29;82.91;98948.84;219103;1255;140490;-72
2023/10/30 08:26:29;;;;;;;4.10;3.10;;;;;;;15.47;82.77;98981.99;218461;1256;141429;-72
2023/10/30 08:31:33;;;;;;;3.40;2.10;;;;;;;15.68;82.52;99004.94;218276;1258;139293;-73
2023/10/30 08:36:38;;;;;;;5.80;2.40;;;;;;;15.88;82.32;99007.52;219025;1257;139702;-71
2023/10/30 08:41:44;;;;;;;2.30;2.00;;;;;;;16.13;82.19;99016.08;219474;1257;140236;-71
2023/10/30 08:46:49;;;;;;;7.00;2.30;;;;;;;16.32;81.59;99025.52;219436;1256;140703;-72
2023/10/30 08:51:54;;;;;;;3.00;2.60;;;;;;;16.43;80.79;99016.59;219748;1258;219935;-71
2023/10/30 08:57:07;;;;;;;5.30;2.60;;;;;;;16.50;80.37;99023.53;218352;1258;139835;-70
2023/10/30 09:02:21;;;;;;;2.10;1.90;;;;;;;16.60;80.35;99034.52;218639;1256;162475;-72
2023/10/30 09:07:30;;;;;;;8.80;2.50;;;;;;;16.74;79.98;99028.98;218090;1256;140539;-71
2023/10/30 09:12:35;;;;;;;5.60;2.50;;;;;;;16.83;79.71;99031.57;218085;1256;139369;-72
2023/10/30 09:17:41;;;;;;;2.90;2.50;;;;;;;16.88;79.26;99044.70;219006;1259;139558;-72
2023/10/30 09:22:47;;;;;;;4.60;2.60;;;;;;;16.88;78.73;99062.58;218245;1256;140336;-72
2023/10/30 09:27:51;;;;;;;2.60;2.40;;;;;;;16.89;78.50;99082.64;217952;1257;141117;-72
2023/10/30 09:32:58;;;;;;;3.50;2.40;;;;;;;16.96;78.53;99088.79;218422;1257;140603;-68
2023/10/30 09:38:04;;;;;;;3.70;2.00;;;;;;;16.97;78.09;99087.10;218082;1256;139809;-69
2023/10/30 09:43:09;;;;;;;4.50;2.10;;;;;;;16.94;77.57;99090.59;218090;1260;140701;-69
2023/10/30 09:48:18;;;;;;;4.30;2.60;;;;;;;16.96;77.58;99080.05;218410;1256;139568;-70
2023/10/30 09:53:24;;;;;;;4.20;2.40;;;;;;;17.10;77.37;99078.34;218339;1256;139157;-68
2023/10/30 09:58:31;;;;;;;3.60;2.60;;;;;;;17.23;77.36;99068.90;218304;1256;140952;-73
2023/10/30 10:03:34;;;;;;;24.40;3.00;;;;;;;17.34;76.87;99054.94;218523;1256;140049;-70
2023/10/30 10:08:42;;;;;;;2.00;1.70;;;;;;;17.48;76.70;99042.19;217976;1258;139621;-70
2023/10/30 10:13:48;;;;;;;4.40;2.20;;;;;;;17.67;76.51;99040.09;218579;1259;139356;-70
2023/10/30 10:19:21;;;;;;;1.90;1.70;;;;;;;17.73;75.34;99035.18;218233;1256;138767;-71
2023/10/30 10:24:30;;;;;;;5.60;2.20;;;;;;;17.82;75.22;99036.46;218566;1259;140134;-71
2023/10/30 10:29:34;;;;;;;4.10;2.30;;;;;;;18.04;75.10;99032.20;218837;1256;140933;-70
2023/10/30 10:34:41;;;;;;;5.20;2.20;;;;;;;18.25;74.69;99028.33;220004;1257;139850;-73
2023/10/30 10:39:51;;;;;;;6.50;2.50;;;;;;;18.36;73.89;99020.70;219015;1256;140076;-73
2023/10/30 10:44:58;;;;;;;3.20;2.40;;;;;;;18.50;73.61;99016.84;218070;1256;140188;-72
2023/10/30 10:50:03;;;;;;;3.40;2.10;;;;;;;18.61;72.84;99018.52;220126;1256;140223;-72
2023/10/30 10:55:09;;;;;;;4.90;2.00;;;;;;;18.71;72.34;99019.29;219237;1257;141083;-72
2023/10/30 11:00:15;;;;;;;2.50;2.30;;;;;;;18.78;72.28;99010.27;218125;1256;139712;-71
2023/10/30 11:05:26;;;;;;;11.10;2.50;;;;;;;18.93;71.84;99003.34;218542;1256;140718;-70
2023/10/30 11:10:40;;;;;;;2.20;1.40;;;;;;;18.98;71.16;98994.88;219158;1259;141618;-72
2023/10/30 11:16:09;;;;;;;2.40;1.40;;;;;;;19.06;70.79;98992.90;217872;1256;139748;-71
2023/10/30 11:21:16;;;;;;;1.30;1.30;;;;;;;19.10;69.96;99004.42;218335;1258;139354;-69
2023/10/30 11:26:36;;;;;;;3.20;1.50;;;;;;;19.14;69.89;98993.91;218248;1256;139760;-69
2023/10/30 11:32:00;;;;;;;3.50;2.10;;;;;;;19.26;69.52;98994.24;217903;1256;141259;-69
2023/10/30 11:37:12;;;;;;;3.40;1.30;;;;;;;19.33;69.10;98983.95;218273;1258;139572;-70
2023/10/30 11:42:28;;;;;;;2.30;1.70;;;;;;;19.28;68.43;98972.23;217649;1260;140524;-69
2023/10/30 11:47:34;;;;;;;3.60;1.80;;;;;;;19.33;68.50;98959.98;218096;1259;139054;-70
2023/10/30 11:52:50;;;;;;;9.10;1.80;;;;;;;19.39;68.23;98962.17;218387;1256;140342;-70
2023/10/30 11:57:59;;;;;;;6.40;1.70;;;;;;;19.47;68.02;98950.92;218433;1256;139327;-71
2023/10/30 12:03:05;;;;;;;3.00;1.40;;;;;;;19.46;67.50;98944.46;218780;1258;139888;-71
2023/10/30 12:08:13;;;;;;;4.40;2.50;;;;;;;19.48;67.51;98936.37;218675;1261;139649;-70
2023/10/30 12:13:20;;;;;;;4.40;2.10;;;;;;;19.41;67.11;98940.27;218534;1259;140708;-69
2023/10/30 12:18:25;;;;;;;3.00;2.00;;;;;;;19.35;67.24;98949.65;218483;1256;140402;-71
2023/10/30 12:23:30;;;;;;;2.10;1.80;;;;;;;19.41;67.06;98948.23;218540;1257;139440;-71
2023/10/30 12:28:37;;;;;;;1.80;1.70;;;;;;;19.47;66.94;98949.52;218860;1256;138922;-72
2023/10/30 12:33:42;;;;;;;2.20;1.80;;;;;;;19.40;66.61;98940.69;220376;1258;140117;-70
2023/10/30 12:38:49;;;;;;;1.90;1.60;;;;;;;19.39;66.50;98929.61;218659;1256;139566;-70
2023/10/30 12:43:55;;;;;;;2.20;1.70;;;;;;;19.37;66.52;98930.17;219015;1258;139167;-71
2023/10/30 12:49:01;;;;;;;2.40;2.00;;;;;;;19.32;66.33;98944.23;220038;1258;140150;-70
2023/10/30 12:54:06;;;;;;;36.60;5.40;;;;;;;19.35;66.10;98952.92;218943;1255;140187;-69
2023/10/30 12:59:10;;;;;;;3.90;2.30;;;;;;;19.36;66.03;98960.24;219120;1256;139997;-70
2023/10/30 13:04:14;;;;;;;2.00;1.90;;;;;;;19.31;65.82;98958.33;219260;1255;139056;-68
2023/10/30 13:09:20;;;;;;;2.30;2.00;;;;;;;19.15;65.90;98953.19;218792;1259;140100;-68
2023/10/30 13:14:26;;;;;;;4.50;2.00;;;;;;;19.06;65.87;98947.36;218419;1259;140846;-69
2023/10/30 13:19:31;;;;;;;7.80;2.40;;;;;;;18.93;65.76;98941.05;218256;1259;139798;-70
2023/10/30 13:24:37;;;;;;;3.70;2.30;;;;;;;18.77;65.93;98940.79;218182;1259;605476;-68
2023/10/30 13:29:42;;;;;;;2.50;1.30;;;;;;;18.67;66.03;98943.05;218525;1256;140474;-74
2023/10/30 13:34:46;;;;;;;8.50;2.30;;;;;;;18.51;65.86;98937.31;218701;1256;139847;-70
2023/10/30 13:39:50;;;;;;;2.60;1.90;;;;;;;18.44;66.13;98938.33;218014;1258;140656;-72
2023/10/30 13:44:55;;;;;;;3.80;1.60;;;;;;;18.38;66.34;98938.63;219029;1258;139685;-72
2023/10/30 13:50:00;;;;;;;3.90;2.30;;;;;;;18.33;66.68;98937.52;218997;1256;140697;-72
2023/10/30 13:55:04;;;;;;;3.40;2.00;;;;;;;18.20;66.57;98935.46;218708;1260;139682;-71
2023/10/30 14:00:10;;;;;;;4.80;1.90;;;;;;;17.96;66.53;98933.37;218742;1259;140323;-71
2023/10/30 14:05:15;;;;;;;4.90;2.30;;;;;;;17.77;66.95;98934.60;217993;1256;140388;-71
2023/10/30 14:10:19;;;;;;;3.10;2.30;;;;;;;17.55;67.19;98931.80;218497;1256;139337;-73
2023/10/30 14:15:24;;;;;;;3.50;2.50;;;;;;;17.32;67.44;98920.56;218905;1257;140514;-72
2023/10/30 14:20:28;;;;;;;4.40;2.30;;;;;;;17.12;68.03;98916.79;218690;1256;139603;-73
2023/10/30 14:25:33;;;;;;;2.70;2.40;;;;;;;16.97;68.45;98915.23;218887;1256;140998;-71
2023/10/30 14:30:38;;;;;;;3.70;2.40;;;;;;;16.78;68.90;98908.70;218561;1259;139598;-72
2023/10/30 14:35:46;;;;;;;8.20;2.80;;;;;;;16.70;69.62;98908.43;219015;1260;140887;-73
2023/10/30 14:40:51;;;;;;;7.70;3.30;;;;;;;16.64;69.88;98913.08;220236;1256;139820;-71
2023/10/30 14:45:57;;;;;;;5.40;3.10;;;;;;;16.57;70.28;98909.14;218685;1260;140138;-68
2023/10/30 14:51:03;;;;;;;5.50;2.30;;;;;;;16.40;70.43;98902.86;218643;1260;140395;-69
2023/10/30 14:56:15;;;;;;;9.50;3.30;;;;;;;16.25;70.80;98908.77;218041;1260;139704;-71
2023/10/30 15:01:24;;;;;;;11.80;3.50;;;;;;;16.12;71.32;98915.27;218737;1260;140229;-73
2023/10/30 15:06:38;;;;;;;10.50;2.70;;;;;;;15.94;71.37;98911.65;219242;1259;141853;-72
2023/10/30 15:11:46;;;;;;;6.60;2.70;;;;;;;15.75;71.78;98908.02;218684;1256;140266;-69
2023/10/30 15:16:51;;;;;;;8.20;3.80;;;;;;;15.59;72.14;98909.17;218335;1260;139834;-70
2023/10/30 15:21:58;;;;;;;4.20;2.60;;;;;;;15.41;72.40;98905.73;218586;1260;139639;-69
2023/10/30 15:27:03;;;;;;;5.90;2.70;;;;;;;15.11;72.69;98904.55;218347;1259;225091;-70
2023/10/30 15:32:10;;;;;;;8.70;3.30;;;;;;;14.83;73.15;98909.44;218213;1259;140357;-68
2023/10/30 15:37:18;;;;;;;9.30;5.30;;;;;;;14.67;73.61;98919.94;218378;1260;140263;-69
2023/10/30 15:42:29;;;;;;;10.00;7.40;;;;;;;14.52;73.93;98920.91;219331;1257;141119;-67
2023/10/30 15:47:39;;;;;;;85.70;42.60;;;;;;;14.34;74.26;98911.84;218172;1258;139722;-75
2023/10/30 15:52:51;;;;;;;152.00;83.50;;;;;;;14.20;74.52;98911.02;218646;1260;140336;-70
2023/10/30 15:58:00;;;;;;;58.30;32.60;;;;;;;14.09;74.63;98916.23;219026;1260;140547;-72
2023/10/30 16:03:07;;;;;;;80.50;43.90;;;;;;;13.96;74.71;98911.50;219257;1256;139957;-75
2023/10/30 16:08:15;;;;;;;70.70;30.80;;;;;;;13.78;74.98;98915.77;220425;1256;140795;-74
2023/10/30 16:13:25;;;;;;;23.90;12.90;;;;;;;13.70;75.58;98913.36;219300;1259;139886;-71
2023/10/30 16:18:46;;;;;;;19.00;10.70;;;;;;;13.61;75.46;98912.95;218402;1260;140473;-72
2023/10/30 16:23:54;;;;;;;70.10;37.80;;;;;;;13.39;75.63;98904.80;220194;1257;141024;-75
2023/10/30 16:28:59;;;;;;;28.70;14.50;;;;;;;13.29;76.04;98908.14;219318;1257;140402;-74
2023/10/30 16:34:07;;;;;;;17.00;9.60;;;;;;;13.22;76.47;98903.17;218475;1257;139846;-72
2023/10/30 16:39:13;;;;;;;14.60;9.00;;;;;;;13.16;77.16;98912.39;219516;1257;141925;-73
2023/10/30 16:44:17;;;;;;;12.10;8.60;;;;;;;13.13;77.37;98927.17;218735;1258;139734;-72
2023/10/30 16:49:22;;;;;;;11.20;9.00;;;;;;;13.03;77.81;98932.42;219591;1257;140870;-74
2023/10/30 16:54:27;;;;;;;16.00;10.60;;;;;;;12.99;78.34;98925.37;219061;1256;139963;-74
2023/10/30 16:59:31;;;;;;;18.70;9.20;;;;;;;12.99;78.86;98913.64;218207;1257;140742;-72
2023/10/30 17:04:38;;;;;;;15.20;9.90;;;;;;;13.02;79.56;98907.01;218243;1257;140047;-71
2023/10/30 17:09:50;;;;;;;14.90;9.60;;;;;;;13.07;79.81;98900.69;218538;1257;141000;-72
2023/10/30 17:14:55;;;;;;;14.60;9.80;;;;;;;13.13;80.22;98905.92;218252;1257;141108;-73
2023/10/30 17:19:59;;;;;;;15.10;8.90;;;;;;;13.18;80.74;98903.61;218532;1257;140137;-71
2023/10/30 17:25:06;;;;;;;14.30;8.70;;;;;;;13.19;80.79;98897.77;218423;1257;140456;-73
2023/10/30 17:30:14;;;;;;;18.20;10.40;;;;;;;13.18;80.77;98899.17;218596;1257;246555;-72
2023/10/30 17:35:25;;;;;;;17.00;10.30;;;;;;;13.14;80.98;98897.79;218522;1257;140696;-72
2023/10/30 17:40:36;;;;;;;16.30;10.30;;;;;;;13.13;81.25;98907.30;219313;1258;139801;-70
2023/10/30 17:45:47;;;;;;;19.50;11.40;;;;;;;13.09;81.25;98901.33;218510;1259;140041;-73
2023/10/30 17:50:53;;;;;;;15.50;10.00;;;;;;;13.06;81.39;98902.29;218719;1257;141888;-73
2023/10/30 17:55:59;;;;;;;19.10;11.00;;;;;;;13.05;81.62;98894.27;218785;1257;141501;-71
2023/10/30 18:01:15;;;;;;;21.00;12.00;;;;;;;13.03;81.95;98888.86;218916;1257;140167;-71
2023/10/30 18:06:20;;;;;;;18.40;11.00;;;;;;;13.02;82.16;98889.56;219874;1254;139806;-75
2023/10/30 18:11:24;;;;;;;19.50;10.90;;;;;;;12.97;82.27;98878.02;218864;1256;140297;-77
2023/10/30 18:16:29;;;;;;;24.90;13.90;;;;;;;12.95;82.37;98884.27;219567;1257;140962;-76
2023/10/30 18:21:33;;;;;;;23.90;14.60;;;;;;;12.91;82.80;98881.17;220573;1254;140010;-74
2023/10/30 18:26:38;;;;;;;28.80;15.80;;;;;;;12.87;82.90;98874.06;219905;1255;140715;-73
2023/10/30 18:31:42;;;;;;;24.70;17.10;;;;;;;12.86;82.92;98871.82;219625;1256;141254;-69
2023/10/30 18:36:47;;;;;;;34.20;16.20;;;;;;;12.87;82.68;98865.83;220064;1256;141299;-73
2023/10/30 18:41:53;;;;;;;32.00;15.10;;;;;;;12.86;82.73;98878.98;218712;1254;141091;-73
2023/10/30 18:46:58;;;;;;;18.30;11.70;;;;;;;12.82;83.00;98877.58;219726;1254;140785;-74
2023/10/30 18:52:03;;;;;;;43.90;21.30;;;;;;;12.77;83.16;98865.00;218923;1255;140033;-73
2023/10/30 18:57:09;;;;;;;173.90;63.20;;;;;;;12.72;83.15;98857.95;218263;1258;139980;-73
2023/10/30 19:02:15;;;;;;;79.40;30.60;;;;;;;12.67;83.54;98856.03;218846;1257;140772;-73
2023/10/30 19:07:19;;;;;;;77.10;30.60;;;;;;;12.59;83.66;98845.60;218545;1257;140230;-72
2023/10/30 19:12:23;;;;;;;52.60;25.60;;;;;;;12.54;83.65;98842.40;219270;1257;141210;-73
2023/10/30 19:17:27;;;;;;;32.40;14.70;;;;;;;12.53;83.85;98838.23;218398;1257;140298;-73
2023/10/30 19:22:31;;;;;;;27.00;14.70;;;;;;;12.52;84.16;98837.45;218366;1257;140472;-73
2023/10/30 19:27:34;;;;;;;96.10;34.80;;;;;;;12.51;84.32;98827.67;218374;1255;140805;-73
2023/10/30 19:32:39;;;;;;;101.10;33.00;;;;;;;12.45;84.17;98818.27;218797;1256;140129;-73
2023/10/30 19:37:42;;;;;;;37.20;19.30;;;;;;;12.41;84.14;98816.66;218106;1257;140510;-73
2023/10/30 19:42:47;;;;;;;25.80;16.50;;;;;;;12.37;84.29;98810.77;219450;1254;140750;-72
2023/10/30 19:47:51;;;;;;;27.90;16.50;;;;;;;12.34;84.58;98811.80;218065;1256;142676;-72
2023/10/30 19:52:56;;;;;;;29.40;14.60;;;;;;;12.34;84.72;98812.75;217861;1254;139817;-73
2023/10/30 19:58:02;;;;;;;17.30;10.90;;;;;;;12.33;85.00;98815.10;219829;1254;139990;-73
2023/10/30 20:03:08;;;;;;;18.00;13.70;;;;;;;12.27;85.09;98800.57;220007;1255;140543;-73
2023/10/30 20:08:15;;;;;;;29.00;15.40;;;;;;;12.24;85.33;98791.54;219943;1256;140949;-73
2023/10/30 20:13:25;;;;;;;24.50;15.40;;;;;;;12.23;85.58;98781.30;219599;1255;151206;-73
2023/10/30 20:18:35;;;;;;;23.00;17.20;;;;;;;12.23;85.47;98771.88;220654;1253;141359;-73
2023/10/30 20:23:39;;;;;;;25.70;16.80;;;;;;;12.26;85.45;98765.02;220590;1254;140190;-73
2023/10/30 20:28:43;;;;;;;21.80;14.10;;;;;;;12.26;85.76;98760.48;220493;1255;139863;-73
2023/10/30 20:33:47;;;;;;;23.20;14.90;;;;;;;12.28;85.60;98756.52;219302;1255;140567;-73
2023/10/30 20:38:51;;;;;;;28.80;18.30;;;;;;;12.27;85.76;98745.52;218500;1255;141094;-73
2023/10/30 20:43:55;;;;;;;28.70;16.20;;;;;;;12.24;85.60;98742.59;218292;1254;140515;-72
2023/10/30 20:49:03;;;;;;;20.60;15.40;;;;;;;12.21;85.62;98737.36;218695;1256;140455;-73
2023/10/30 20:54:10;;;;;;;23.60;15.70;;;;;;;12.17;85.61;98730.42;218474;1256;140381;-73
2023/10/30 20:59:14;;;;;;;22.30;13.30;;;;;;;12.13;85.75;98723.21;218635;1255;140036;-72
2023/10/30 21:04:19;;;;;;;24.50;12.80;;;;;;;12.09;85.75;98716.77;218432;1256;140220;-72
2023/10/30 21:09:23;;;;;;;15.90;11.70;;;;;;;12.04;86.02;98707.09;218517;1256;141305;-72
2023/10/30 21:14:27;;;;;;;19.00;12.40;;;;;;;12.02;86.43;98697.95;218376;1256;139862;-71
2023/10/30 21:19:31;;;;;;;16.80;12.70;;;;;;;12.02;86.47;98674.61;219028;1253;141283;-72
2023/10/30 21:24:35;;;;;;;13.40;11.00;;;;;;;12.00;86.77;98658.70;218807;1256;140149;-72
2023/10/30 21:29:38;;;;;;;16.80;10.70;;;;;;;11.99;87.15;98643.69;218267;1254;141968;-72
2023/10/30 21:34:42;;;;;;;17.30;9.70;;;;;;;12.00;87.26;98641.34;218124;1257;141244;-71
2023/10/30 21:39:47;;;;;;;20.50;12.00;;;;;;;12.03;87.64;98634.60;218531;1256;141437;-72
2023/10/30 21:44:53;;;;;;;16.00;11.20;;;;;;;12.06;87.83;98626.21;218859;1257;140436;-70
2023/10/30 21:49:57;;;;;;;11.80;10.10;;;;;;;12.08;87.85;98625.66;219036;1256;140576;-72
2023/10/30 21:55:00;;;;;;;14.70;10.10;;;;;;;12.12;88.08;98612.14;220045;1256;140430;-72
2023/10/30 22:00:07;;;;;;;13.40;9.90;;;;;;;12.16;88.08;98605.99;218996;1258;140162;-72
2023/10/30 22:05:13;;;;;;;13.40;8.30;;;;;;;12.17;88.13;98592.20;220515;1256;140739;-72
2023/10/30 22:10:21;;;;;;;13.20;10.00;;;;;;;12.19;88.30;98593.48;219359;1256;140791;-72
2023/10/30 22:15:26;;;;;;;17.80;9.70;;;;;;;12.23;88.36;98588.77;220247;1255;140388;-72
2023/10/30 22:20:30;;;;;;;13.30;8.90;;;;;;;12.26;88.47;98581.84;219006;1255;141125;-71
2023/10/30 22:25:35;;;;;;;14.00;8.90;;;;;;;12.32;88.73;98573.11;218712;1255;141223;-71
2023/10/30 22:30:40;;;;;;;15.00;9.20;;;;;;;12.38;88.61;98573.94;218807;1257;139868;-72
2023/10/30 22:35:45;;;;;;;17.70;11.30;;;;;;;12.42;88.85;98566.48;217877;1260;139787;-72
2023/10/30 22:40:50;;;;;;;14.20;9.20;;;;;;;12.44;89.02;98560.71;218601;1256;140134;-71
2023/10/30 22:45:55;;;;;;;16.00;9.90;;;;;;;12.46;88.93;98554.55;218676;1255;141919;-72
2023/10/30 22:51:00;;;;;;;15.10;11.20;;;;;;;12.46;89.25;98552.80;219432;1255;140122;-71
2023/10/30 22:56:05;;;;;;;9.90;8.90;;;;;;;12.47;89.20;98551.52;218500;1259;140537;-72
2023/10/30 23:01:10;;;;;;;15.80;9.50;;;;;;;12.49;89.22;98534.08;219462;1255;140633;-71
2023/10/30 23:06:15;;;;;;;16.30;10.10;;;;;;;12.51;89.23;98519.63;218810;1255;139945;-71
2023/10/30 23:11:20;;;;;;;12.20;9.40;;;;;;;12.53;88.99;98506.77;218779;1255;140558;-71
2023/10/30 23:16:25;;;;;;;13.50;9.70;;;;;;;12.53;89.00;98495.23;219043;1256;140867;-71